createdAt,value
2018-06-19T00:00:33.643Z,8.53
2018-06-19T00:03:10.667Z,8.27
2018-06-19T00:06:04.436Z,7.17
2018-06-19T00:08:42.141Z,6.60
2018-06-19T00:14:24.407Z,8.20
2018-06-19T00:17:34.600Z,6.93
2018-06-19T00:27:11.595Z,6.40
2018-06-19T00:30:30.764Z,5.17
2018-06-19T00:33:10.717Z,7.30
2018-06-19T00:36:19.318Z,5.47
2018-06-19T00:44:59.261Z,4.57
2018-06-19T00:47:35.108Z,4.40
2018-06-19T00:50:24.337Z,4.63
2018-06-19T00:56:23.143Z,3.87
2018-06-19T00:59:15.173Z,3.73
2018-06-19T01:01:47.150Z,4.57
2018-06-19T01:04:26.081Z,3.20
2018-06-19T01:07:12.516Z,5.13
2018-06-19T01:09:51.496Z,3.27
2018-06-19T01:15:35.115Z,5.03
2018-06-19T01:18:22.048Z,3.40
2018-06-19T01:21:09.052Z,2.90
2018-06-19T01:23:53.413Z,3.23
2018-06-19T01:26:55.909Z,3.30
2018-06-19T01:32:34.371Z,3.37
2018-06-19T01:35:41.682Z,2.70
2018-06-19T01:38:56.531Z,3.20
2018-06-19T01:44:30.258Z,2.83
2018-06-19T01:50:27.330Z,2.43
2018-06-19T01:53:08.841Z,2.93
2018-06-19T02:01:53.252Z,2.67
2018-06-19T02:04:32.747Z,1.80
2018-06-19T02:07:20.474Z,2.40
2018-06-19T02:10:04.990Z,1.63
2018-06-19T02:15:41.626Z,1.80
2018-06-19T02:18:55.016Z,1.53
2018-06-19T02:21:55.914Z,2.00
2018-06-19T02:24:49.129Z,1.93
2018-06-19T02:27:42.816Z,2.13
2018-06-19T02:30:31.856Z,2.47
2018-06-19T02:33:01.789Z,2.13
2018-06-19T02:41:54.021Z,2.30
2018-06-19T02:47:29.111Z,1.80
2018-06-19T02:56:39.818Z,2.23
2018-06-19T02:59:33.031Z,2.53
2018-06-19T03:02:35.405Z,2.47
2018-06-19T03:05:41.822Z,3.10
2018-06-19T03:08:38.208Z,4.80
2018-06-19T03:11:34.604Z,2.73
2018-06-19T03:14:05.420Z,2.60
2018-06-19T03:16:49.161Z,3.13
2018-06-19T03:19:34.539Z,2.70
2018-06-19T03:41:10.889Z,2.03
2018-06-19T03:43:53.863Z,2.13
2018-06-19T03:46:36.574Z,2.30
2018-06-19T03:49:25.563Z,1.70
2018-06-19T03:52:04.692Z,1.73
2018-06-19T03:54:38.276Z,1.43
2018-06-19T03:57:21.347Z,2.50
2018-06-19T03:59:51.528Z,1.10
2018-06-19T04:02:25.537Z,1.33
2018-06-19T04:04:59.935Z,0.80
2018-06-19T04:07:32.953Z,1.20
2018-06-19T04:10:14.070Z,0.93
2018-06-19T04:12:45.183Z,2.77
2018-06-19T04:15:21.007Z,0.90
2018-06-19T04:18:02.025Z,1.50
2018-06-19T04:20:33.661Z,0.70
2018-06-19T04:23:04.370Z,0.87
2018-06-19T04:25:45.409Z,0.70
2018-06-19T04:28:18.694Z,0.77
2018-06-19T04:30:50.934Z,0.73
2018-06-19T04:33:24.776Z,1.03
2018-06-19T04:35:59.364Z,0.97
2018-06-19T04:38:33.386Z,0.93
2018-06-19T04:41:11.907Z,0.77
2018-06-19T04:43:47.418Z,1.23
2018-06-19T04:46:37.755Z,0.97
2018-06-19T04:49:13.258Z,0.90
2018-06-19T04:51:52.551Z,1.57
2018-06-19T04:54:26.931Z,1.37
2018-06-19T04:57:05.660Z,2.17
2018-06-19T04:59:40.963Z,1.30
2018-06-19T05:02:15.113Z,1.00
2018-06-19T05:04:47.066Z,1.10
2018-06-19T05:07:18.279Z,1.50
2018-06-19T05:09:54.997Z,0.97
2018-06-19T05:15:30.294Z,1.10
2018-06-19T05:18:11.903Z,0.80
2018-06-19T05:21:02.949Z,0.90
2018-06-19T05:23:41.767Z,1.50
2018-06-19T05:26:22.423Z,1.30
2018-06-19T05:29:08.624Z,1.30
2018-06-19T05:31:42.766Z,1.43
2018-06-19T05:34:22.499Z,1.50
2018-06-19T05:37:04.429Z,1.57
2018-06-19T05:39:53.862Z,1.13
2018-06-19T05:42:27.840Z,1.50
2018-06-19T05:45:11.530Z,1.73
2018-06-19T05:50:31.315Z,1.30
2018-06-19T05:53:08.123Z,2.00
2018-06-19T05:56:09.542Z,1.50
2018-06-19T05:59:19.229Z,1.33
2018-06-19T06:02:04.457Z,1.73
2018-06-19T06:04:37.251Z,1.93
2018-06-19T06:07:37.044Z,1.03
2018-06-19T06:10:27.440Z,1.20
2018-06-19T06:13:07.225Z,1.27
2018-06-19T06:18:33.599Z,0.90
2018-06-19T06:21:19.988Z,2.10
2018-06-19T06:24:05.345Z,0.73
2018-06-19T06:26:39.843Z,2.60
2018-06-19T06:29:11.636Z,0.83
2018-06-19T06:31:58.105Z,0.83
2018-06-19T06:37:30.024Z,0.67
2018-06-19T06:40:31.435Z,0.77
2018-06-19T06:43:15.191Z,0.53
2018-06-19T06:46:03.346Z,0.60
2018-06-19T06:48:44.996Z,1.00
2018-06-19T06:51:20.361Z,1.67
2018-06-19T06:54:08.072Z,1.10
2018-06-19T06:56:44.596Z,1.37
2018-06-19T06:59:17.874Z,1.75
2018-06-19T07:04:57.979Z,0.70
2018-06-19T07:07:52.533Z,0.70
2018-06-19T07:10:29.673Z,1.00
2018-06-19T07:13:16.102Z,0.50
2018-06-19T07:16:03.388Z,1.37
2018-06-19T07:24:59.022Z,0.45
2018-06-19T07:27:44.663Z,0.70
2018-06-19T07:30:52.486Z,0.50
2018-06-19T07:33:37.768Z,0.53
2018-06-19T07:36:12.128Z,0.50
2018-06-19T07:38:44.380Z,0.50
2018-06-19T07:41:16.392Z,0.70
2018-06-19T07:43:53.435Z,0.78
2018-06-19T07:49:10.507Z,0.57
2018-06-19T07:51:46.978Z,0.70
2018-06-19T07:54:29.117Z,0.45
2018-06-19T07:57:02.339Z,0.40
2018-06-19T07:59:39.357Z,5.10
2018-06-19T08:02:13.048Z,0.70
2018-06-19T08:04:51.841Z,0.70
2018-06-19T08:07:22.197Z,0.93
2018-06-19T08:09:59.618Z,0.40
2018-06-19T08:12:50.024Z,2.72
2018-06-19T08:15:19.738Z,1.17
2018-06-19T08:17:51.824Z,0.70
2018-06-19T08:20:21.205Z,0.60
2018-06-19T08:22:54.914Z,0.70
2018-06-19T08:25:47.220Z,0.70
2018-06-19T08:31:36.979Z,0.60
2018-06-19T08:34:43.503Z,0.90
2018-06-19T08:37:17.721Z,0.62
2018-06-19T08:40:06.732Z,0.78
2018-06-19T08:43:09.397Z,1.20
2018-06-19T08:46:04.478Z,0.78
2018-06-19T08:48:38.149Z,1.77
2018-06-19T08:54:25.075Z,1.25
2018-06-19T08:57:18.943Z,1.27
2018-06-19T09:00:09.487Z,1.40
2018-06-19T09:05:46.930Z,1.20
2018-06-19T09:11:26.490Z,0.85
2018-06-19T09:14:08.709Z,1.27
2018-06-19T09:20:02.929Z,0.75
2018-06-19T09:22:53.418Z,1.37
2018-06-19T09:25:26.294Z,1.17
2018-06-19T09:28:28.358Z,0.75
2018-06-19T09:31:05.176Z,1.17
2018-06-19T09:37:00.726Z,2.22
2018-06-19T09:40:02.803Z,0.88
2018-06-19T09:42:56.307Z,0.75
2018-06-19T09:45:36.384Z,0.80
2018-06-19T09:51:53.309Z,0.82
2018-06-19T09:54:39.757Z,0.90
2018-06-19T10:11:31.808Z,0.82
2018-06-19T10:16:58.724Z,0.90
2018-06-19T10:19:33.200Z,1.12
2018-06-19T10:22:23.936Z,0.90
2018-06-19T10:24:56.024Z,1.07
2018-06-19T10:27:34.518Z,0.85
2018-06-19T10:30:07.934Z,0.90
2018-06-19T10:32:53.158Z,1.00
2018-06-19T10:35:24.574Z,0.65
2018-06-19T10:38:20.940Z,1.17
2018-06-19T10:41:04.519Z,1.07
2018-06-19T10:44:01.348Z,1.60
2018-06-19T10:46:47.690Z,0.70
2018-06-19T10:49:32.084Z,0.95
2018-06-19T11:01:16.431Z,0.78
2018-06-19T11:04:01.493Z,0.80
2018-06-19T11:07:02.673Z,1.07
2018-06-19T11:09:58.949Z,1.15
2018-06-19T11:15:23.067Z,1.02
2018-06-19T11:18:16.385Z,0.80
2018-06-19T11:21:03.742Z,1.07
2018-06-19T11:24:13.673Z,0.90
2018-06-19T11:26:57.654Z,1.00
2018-06-19T11:29:48.494Z,1.45
2018-06-19T11:32:41.746Z,0.70
2018-06-19T11:35:51.199Z,0.95
2018-06-19T11:42:01.644Z,1.00
2018-06-19T11:47:36.316Z,0.90
2018-06-19T11:53:37.806Z,1.32
2018-06-19T11:56:10.491Z,0.82
2018-06-19T11:58:57.129Z,1.15
2018-06-19T12:01:35.850Z,0.95
2018-06-19T12:04:12.141Z,0.85
2018-06-19T12:06:52.255Z,1.00
2018-06-19T12:15:27.869Z,1.55
2018-06-19T12:18:02.064Z,1.17
2018-06-19T12:20:52.027Z,1.22
2018-06-19T12:23:45.059Z,0.70
2018-06-19T12:26:33.017Z,1.22
2018-06-19T12:31:53.962Z,1.20
2018-06-19T12:34:32.394Z,1.27
2018-06-19T12:37:05.158Z,1.45
2018-06-19T12:43:23.680Z,1.67
2018-06-19T12:45:58.599Z,1.52
2018-06-19T12:48:38.063Z,1.05
2018-06-19T12:52:13.819Z,1.22
2018-06-19T12:55:13.732Z,1.35
2018-06-19T12:57:57.999Z,1.77
2018-06-19T13:00:44.561Z,2.05
2018-06-19T13:03:26.514Z,1.92
2018-06-19T13:06:07.603Z,1.80
2018-06-19T13:08:47.467Z,2.80
2018-06-19T13:11:20.130Z,2.05
2018-06-19T13:16:58.739Z,1.60
2018-06-19T13:19:53.102Z,1.17
2018-06-19T13:22:33.062Z,0.95
2018-06-19T13:25:17.390Z,0.90
2018-06-19T13:27:59.093Z,2.25
2018-06-19T13:30:42.592Z,1.67
2018-06-19T13:33:29.966Z,1.30
2018-06-19T13:36:15.212Z,1.62
2018-06-19T13:39:11.652Z,3.58
2018-06-19T13:42:50.472Z,1.90
2018-06-19T13:45:30.380Z,1.90
2018-06-19T13:48:13.073Z,1.55
2018-06-19T13:50:58.161Z,1.82
2018-06-19T13:53:55.274Z,1.60
2018-06-19T14:00:46.410Z,2.15
2018-06-19T14:03:26.978Z,2.20
2018-06-19T14:06:10.576Z,2.50
2018-06-19T14:09:00.106Z,2.33
2018-06-19T14:11:35.749Z,2.20
2018-06-19T14:14:38.433Z,3.05
2018-06-19T14:17:27.060Z,2.33
2018-06-19T14:20:05.777Z,2.52
2018-06-19T14:22:57.258Z,2.60
2018-06-19T14:25:38.907Z,2.90
2018-06-19T14:28:39.233Z,3.25
2018-06-19T14:31:17.789Z,3.25
2018-06-19T14:33:55.964Z,4.95
2018-06-19T14:36:31.425Z,3.55
2018-06-19T14:42:15.267Z,3.12
2018-06-19T14:45:12.697Z,3.30
2018-06-19T14:47:51.825Z,3.25
2018-06-19T14:56:15.696Z,3.15
2018-06-19T15:01:30.699Z,3.52
2018-06-19T15:04:14.872Z,5.42
2018-06-19T15:06:51.927Z,3.37
2018-06-19T15:09:32.884Z,3.02
2018-06-19T15:12:03.467Z,3.33
2018-06-19T15:14:44.200Z,3.98
2018-06-19T15:17:16.820Z,3.70
2018-06-19T15:19:47.632Z,4.05
2018-06-19T15:22:27.297Z,4.03
2018-06-19T15:25:06.442Z,6.00
2018-06-19T15:27:55.528Z,4.35
2018-06-19T15:30:36.061Z,3.45
2018-06-19T15:33:17.257Z,5.30
2018-06-19T15:39:02.709Z,3.30
2018-06-19T15:41:42.892Z,3.22
2018-06-19T15:44:25.567Z,3.25
2018-06-19T15:47:17.796Z,2.98
2018-06-19T15:50:00.616Z,3.50
2018-06-19T15:52:52.891Z,3.40
2018-06-19T15:55:41.989Z,3.33
2018-06-19T15:58:17.349Z,3.42
2018-06-19T16:01:06.585Z,3.40
2018-06-19T16:04:14.015Z,3.37
2018-06-19T16:07:06.835Z,3.40
2018-06-19T16:09:37.058Z,3.80
2018-06-19T16:12:19.238Z,3.45
2018-06-19T16:15:10.749Z,4.03
2018-06-19T16:17:45.098Z,3.67
2018-06-19T16:25:42.191Z,3.65
2018-06-19T16:28:16.763Z,3.30
2018-06-19T16:31:09.096Z,3.37
2018-06-19T16:33:52.022Z,3.58
2018-06-19T16:36:26.312Z,3.52
2018-06-19T16:49:21.859Z,3.45
2018-06-19T16:52:01.303Z,5.17
2018-06-19T16:57:44.652Z,3.20
2018-06-19T17:00:32.120Z,3.12
2018-06-19T17:06:19.359Z,2.98
2018-06-19T17:09:00.154Z,3.12
2018-06-19T17:11:44.368Z,3.87
2018-06-19T17:15:04.227Z,3.00
2018-06-19T17:18:27.721Z,3.52
2018-06-19T17:21:28.950Z,3.00
2018-06-19T17:31:15.775Z,2.87
2018-06-19T17:34:06.162Z,2.80
2018-06-19T17:36:56.737Z,2.80
2018-06-19T17:39:42.889Z,2.98
2018-06-19T17:42:16.383Z,2.70
2018-06-19T17:44:56.892Z,2.90
2018-06-19T17:53:23.283Z,2.67
2018-06-19T17:56:00.059Z,2.92
2018-06-19T17:58:39.621Z,2.72
2018-06-19T18:01:25.447Z,2.55
2018-06-19T18:04:22.051Z,2.60
2018-06-19T18:07:29.680Z,2.80
2018-06-19T18:19:40.952Z,3.00
2018-06-19T18:22:25.039Z,3.10
2018-06-19T18:25:15.667Z,2.47
2018-06-19T18:33:53.837Z,2.58
2018-06-19T18:39:35.822Z,2.40
2018-06-19T18:42:26.791Z,2.52
2018-06-19T18:45:16.791Z,2.65
2018-06-19T18:48:23.923Z,2.65
2018-06-19T21:38:05.368Z,3.80
2018-06-19T21:44:00.028Z,4.33
2018-06-19T21:46:47.838Z,3.70
2018-06-19T21:49:17.986Z,4.43
2018-06-19T21:55:57.930Z,3.73
2018-06-19T21:58:35.156Z,4.10
2018-06-19T22:01:33.187Z,3.97
2018-06-19T22:14:05.785Z,4.40
2018-06-19T22:24:19.840Z,4.27
2018-06-19T22:36:57.313Z,4.50
2018-06-19T22:45:55.397Z,5.23
2018-06-19T22:55:03.121Z,5.53
2018-06-19T23:00:54.197Z,6.60
2018-06-19T23:03:31.672Z,6.20
2018-06-19T23:06:29.422Z,6.50
2018-06-19T23:09:17.392Z,7.73
2018-06-19T23:21:12.856Z,6.13
2018-06-19T23:23:44.993Z,6.17
